createdAt,value
2018-11-12T00:01:03.648Z,3.90
2018-11-12T00:03:32.324Z,3.80
2018-11-12T00:06:01.040Z,3.80
2018-11-12T00:08:29.804Z,3.80
2018-11-12T00:10:58.484Z,3.70
2018-11-12T00:13:27.281Z,3.80
2018-11-12T00:15:55.949Z,3.70
2018-11-12T00:18:24.631Z,3.70
2018-11-12T00:20:53.477Z,3.70
2018-11-12T00:23:22.177Z,3.60
2018-11-12T00:25:50.788Z,3.70
2018-11-12T00:28:19.548Z,3.70
2018-11-12T00:30:48.163Z,3.70
2018-11-12T00:33:16.956Z,3.70
2018-11-12T00:35:45.702Z,3.60
2018-11-12T00:38:14.330Z,3.60
2018-11-12T00:40:43.046Z,3.60
2018-11-12T00:43:11.731Z,3.50
2018-11-12T00:45:40.485Z,3.50
2018-11-12T00:48:09.301Z,3.50
2018-11-12T00:50:37.959Z,3.40
2018-11-12T00:53:06.748Z,3.40
2018-11-12T00:55:35.447Z,3.40
2018-11-12T00:58:04.320Z,3.40
2018-11-12T01:00:33.058Z,3.40
2018-11-12T01:03:01.693Z,3.40
2018-11-12T01:05:30.481Z,3.30
2018-11-12T01:07:59.149Z,3.30
2018-11-12T01:10:28.028Z,3.20
2018-11-12T01:12:56.847Z,3.20
2018-11-12T01:15:25.524Z,3.20
2018-11-12T01:17:54.243Z,3.20
2018-11-12T01:20:23.002Z,3.20
2018-11-12T01:22:51.791Z,3.40
2018-11-12T01:25:20.460Z,3.40
2018-11-12T01:27:49.135Z,3.50
2018-11-12T01:30:18.929Z,3.40
2018-11-12T01:32:47.856Z,3.30
2018-11-12T01:35:17.775Z,3.40
2018-11-12T01:37:46.560Z,3.30
2018-11-12T01:40:16.078Z,3.40
2018-11-12T01:42:45.170Z,3.30
2018-11-12T01:45:15.951Z,3.20
2018-11-12T01:47:45.915Z,3.20
2018-11-12T01:50:15.222Z,3.10
2018-11-12T01:52:44.714Z,3.10
2018-11-12T01:55:14.530Z,3.10
2018-11-12T01:57:43.549Z,3.10
2018-11-12T02:00:15.125Z,3.10
2018-11-12T02:02:45.346Z,3.00
2018-11-12T02:05:14.060Z,3.10
2018-11-12T02:07:42.793Z,3.00
2018-11-12T02:10:12.999Z,3.00
2018-11-12T02:12:42.176Z,3.00
2018-11-12T02:15:16.802Z,2.90
2018-11-12T02:17:46.468Z,2.90
2018-11-12T02:20:16.273Z,2.90
2018-11-12T02:22:45.907Z,2.90
2018-11-12T02:25:15.132Z,2.90
2018-11-12T02:27:43.928Z,2.90
2018-11-12T02:30:15.275Z,2.90
2018-11-12T02:32:43.964Z,2.90
2018-11-12T02:35:12.860Z,2.90
2018-11-12T02:37:41.515Z,2.90
2018-11-12T02:40:11.863Z,2.90
2018-11-12T02:42:41.413Z,2.90
2018-11-12T02:45:11.460Z,2.90
2018-11-12T02:47:41.125Z,2.70
2018-11-12T02:50:12.121Z,2.70
2018-11-12T02:52:41.329Z,2.70
2018-11-12T02:55:11.764Z,2.80
2018-11-12T02:57:41.348Z,2.80
2018-11-12T03:00:13.312Z,2.80
2018-11-12T03:02:42.612Z,2.90
2018-11-12T03:05:12.115Z,2.90
2018-11-12T03:07:41.050Z,2.90
2018-11-12T03:10:15.069Z,2.90
2018-11-12T03:12:44.004Z,2.90
2018-11-12T03:15:13.716Z,2.90
2018-11-12T03:17:43.252Z,2.90
2018-11-12T03:20:13.791Z,2.90
2018-11-12T03:22:42.540Z,2.90
2018-11-12T03:25:12.645Z,2.90
2018-11-12T03:27:42.315Z,2.90
2018-11-12T03:30:13.203Z,2.90
2018-11-12T03:32:42.494Z,2.90
2018-11-12T03:35:12.009Z,2.90
2018-11-12T03:37:42.009Z,3.00
2018-11-12T03:40:12.848Z,3.00
2018-11-12T03:42:41.633Z,3.00
2018-11-12T03:45:13.293Z,3.10
2018-11-12T03:47:42.077Z,3.00
2018-11-12T03:50:18.960Z,3.00
2018-11-12T03:52:47.685Z,3.00
2018-11-12T03:55:18.374Z,3.00
2018-11-12T03:57:47.111Z,3.00
2018-11-12T04:00:18.050Z,3.10
2018-11-12T04:02:46.756Z,3.10
2018-11-12T04:05:15.473Z,3.20
2018-11-12T04:07:44.168Z,3.20
2018-11-12T04:10:15.448Z,3.20
2018-11-12T04:12:44.082Z,3.20
2018-11-12T04:15:15.701Z,3.20
2018-11-12T04:17:44.322Z,3.10
2018-11-12T04:20:14.552Z,3.10
2018-11-12T04:22:48.625Z,3.00
2018-11-12T04:25:17.377Z,3.00
2018-11-12T04:27:46.053Z,3.10
2018-11-12T04:30:15.592Z,3.10
2018-11-12T04:32:45.447Z,3.10
2018-11-12T04:35:14.338Z,3.10
2018-11-12T04:37:43.215Z,3.20
2018-11-12T04:40:15.008Z,3.20
2018-11-12T04:42:43.770Z,3.20
2018-11-12T04:45:14.140Z,3.20
2018-11-12T04:47:43.600Z,3.10
2018-11-12T04:50:14.908Z,3.10
2018-11-12T04:52:43.845Z,3.00
2018-11-12T04:55:14.440Z,3.00
2018-11-12T04:57:43.816Z,3.00
2018-11-12T05:00:15.864Z,3.00
2018-11-12T05:02:44.588Z,2.90
2018-11-12T05:05:14.530Z,3.00
2018-11-12T05:07:43.829Z,3.00
2018-11-12T05:10:13.863Z,3.00
2018-11-12T05:12:43.351Z,3.00
2018-11-12T05:15:14.856Z,3.00
2018-11-12T05:17:43.490Z,2.90
2018-11-12T05:20:14.411Z,3.00
2018-11-12T05:22:43.317Z,3.00
2018-11-12T05:25:12.203Z,3.00
2018-11-12T05:27:40.999Z,3.00
2018-11-12T05:30:19.897Z,3.00
2018-11-12T05:32:48.704Z,3.00
2018-11-12T05:35:18.712Z,2.90
2018-11-12T05:37:47.652Z,3.00
2018-11-12T05:40:19.478Z,2.90
2018-11-12T05:42:48.499Z,2.90
2018-11-12T05:45:18.694Z,2.90
2018-11-12T05:47:47.568Z,2.90
2018-11-12T05:50:18.893Z,2.90
2018-11-12T05:52:49.227Z,3.00
2018-11-12T05:55:19.768Z,3.00
2018-11-12T05:57:48.875Z,3.10
2018-11-12T06:00:20.122Z,3.10
2018-11-12T06:02:48.829Z,3.10
2018-11-12T06:05:17.789Z,3.20
2018-11-12T06:07:46.583Z,3.30
2018-11-12T06:10:23.878Z,3.40
2018-11-12T06:12:52.898Z,3.40
2018-11-12T06:15:21.754Z,3.40
2018-11-12T06:17:51.338Z,3.50
2018-11-12T06:20:23.704Z,3.50
2018-11-12T06:22:52.524Z,3.60
2018-11-12T06:25:22.689Z,3.70
2018-11-12T06:27:51.722Z,3.70
2018-11-12T06:30:21.695Z,3.80
2018-11-12T06:32:50.538Z,3.90
2018-11-12T06:35:19.836Z,4.00
2018-11-12T06:37:49.748Z,4.10
2018-11-12T06:40:19.955Z,4.10
2018-11-12T06:42:48.817Z,4.20
2018-11-12T06:45:19.637Z,4.20
2018-11-12T06:47:49.234Z,4.20
2018-11-12T06:50:19.618Z,4.30
2018-11-12T06:52:48.959Z,4.30
2018-11-12T06:55:18.218Z,4.30
2018-11-12T06:57:47.370Z,4.40
2018-11-12T07:00:21.856Z,4.40
2018-11-12T07:02:50.920Z,4.50
2018-11-12T07:05:19.827Z,4.60
2018-11-12T07:07:48.543Z,4.70
2018-11-12T07:10:19.734Z,4.70
2018-11-12T07:12:49.202Z,4.80
2018-11-12T07:15:19.156Z,4.80
2018-11-12T07:17:48.147Z,4.90
2018-11-12T07:20:18.757Z,5.00
2018-11-12T07:22:47.619Z,5.00
2018-11-12T07:25:17.646Z,5.00
2018-11-12T07:27:46.735Z,5.00
2018-11-12T07:30:18.564Z,5.00
2018-11-12T07:32:47.953Z,5.00
2018-11-12T07:35:17.804Z,5.00
2018-11-12T07:37:47.782Z,5.00
2018-11-12T07:40:17.168Z,5.10
2018-11-12T07:42:45.970Z,5.10
2018-11-12T07:45:18.255Z,5.10
2018-11-12T07:47:48.262Z,5.20
2018-11-12T07:50:20.342Z,5.30
2018-11-12T07:52:48.988Z,5.30
2018-11-12T07:55:19.781Z,5.40
2018-11-12T07:57:49.549Z,5.50
2018-11-12T08:01:43.073Z,5.60
2018-11-12T08:04:12.021Z,5.60
2018-11-12T08:06:40.892Z,5.70
2018-11-12T08:09:10.915Z,5.80
2018-11-12T08:11:39.808Z,6.00
2018-11-12T08:14:08.472Z,6.00
2018-11-12T08:16:37.267Z,6.10
2018-11-12T08:19:06.656Z,6.30
2018-11-12T08:21:35.484Z,6.40
2018-11-12T08:24:04.393Z,6.40
2018-11-12T08:26:33.046Z,6.50
2018-11-12T08:29:01.916Z,6.60
2018-11-12T08:31:30.696Z,6.70
2018-11-12T08:33:59.360Z,6.80
2018-11-12T08:36:28.177Z,6.90
2018-11-12T08:38:56.745Z,7.00
2018-11-12T08:41:25.459Z,7.20
2018-11-12T08:43:54.128Z,7.30
2018-11-12T08:46:22.864Z,7.40
2018-11-12T08:48:51.624Z,7.50
2018-11-12T08:51:20.288Z,7.60
2018-11-12T08:53:49.090Z,7.80
2018-11-12T08:56:17.876Z,7.90
2018-11-12T08:58:46.524Z,8.00
2018-11-12T09:01:15.375Z,8.20
2018-11-12T09:03:44.013Z,8.30
2018-11-12T09:06:12.735Z,8.50
2018-11-12T09:08:41.491Z,8.60
2018-11-12T09:11:10.355Z,8.70
2018-11-12T09:13:39.299Z,8.90
2018-11-12T09:16:07.947Z,9.00
2018-11-12T09:18:36.629Z,9.10
2018-11-12T09:21:05.871Z,9.30
2018-11-12T09:23:34.510Z,9.40
2018-11-12T09:26:03.207Z,9.60
2018-11-12T09:28:32.000Z,9.80
2018-11-12T09:31:02.132Z,9.90
2018-11-12T09:33:29.375Z,10.10
2018-11-12T09:35:58.280Z,10.20
2018-11-12T09:38:26.982Z,10.40
2018-11-12T09:40:55.608Z,10.50
2018-11-12T09:43:24.319Z,10.60
2018-11-12T09:45:53.133Z,10.70
2018-11-12T09:48:21.947Z,10.80
2018-11-12T09:50:50.786Z,10.80
2018-11-12T09:53:19.467Z,10.90
2018-11-12T09:55:48.270Z,11.00
2018-11-12T09:58:17.054Z,11.00
2018-11-12T10:00:46.011Z,11.10
2018-11-12T10:03:16.019Z,11.20
2018-11-12T10:05:44.511Z,11.30
2018-11-12T10:08:15.212Z,11.40
2018-11-12T10:10:48.796Z,11.50
2018-11-12T10:13:21.412Z,11.50
2018-11-12T10:15:50.272Z,11.80
2018-11-12T10:18:15.841Z,12.10
2018-11-12T10:20:44.545Z,12.30
2018-11-12T10:23:13.237Z,12.60
2018-11-12T10:25:42.012Z,13.00
2018-11-12T10:28:10.896Z,13.50
2018-11-12T10:30:39.600Z,13.70
2018-11-12T10:33:08.477Z,13.70
2018-11-12T10:35:37.210Z,13.60
2018-11-12T10:38:06.711Z,13.70
2018-11-12T10:40:35.329Z,13.80
2018-11-12T10:43:04.242Z,13.90
2018-11-12T10:45:33.008Z,13.60
2018-11-12T10:48:01.979Z,13.90
2018-11-12T10:50:30.687Z,14.40
2018-11-12T10:52:59.476Z,14.90
2018-11-12T10:55:28.272Z,15.20
2018-11-12T10:57:56.905Z,15.50
2018-11-12T11:00:32.333Z,15.80
2018-11-12T11:03:07.875Z,15.90
2018-11-12T11:05:37.856Z,16.00
2018-11-12T11:08:06.674Z,16.10
2018-11-12T11:10:35.306Z,16.40
2018-11-12T11:13:04.833Z,16.20
2018-11-12T11:15:34.516Z,15.90
2018-11-12T11:18:03.134Z,15.90
2018-11-12T11:20:32.064Z,16.30
2018-11-12T11:23:01.147Z,16.50
2018-11-12T11:25:30.014Z,16.60
2018-11-12T11:27:58.681Z,16.70
2018-11-12T11:30:27.365Z,16.80
2018-11-12T11:32:56.268Z,16.80
2018-11-12T11:35:25.039Z,17.30
2018-11-12T11:37:53.741Z,17.00
2018-11-12T11:40:23.974Z,16.70
2018-11-12T11:42:52.695Z,16.80
2018-11-12T11:45:21.727Z,16.70
2018-11-12T11:47:51.326Z,16.80
2018-11-12T11:50:21.380Z,16.90
2018-11-12T11:52:50.342Z,16.70
2018-11-12T11:55:21.393Z,16.40
2018-11-12T11:57:50.691Z,16.50
2018-11-12T12:00:21.527Z,16.50
2018-11-12T12:02:51.709Z,16.40
2018-11-12T12:05:21.199Z,16.30
2018-11-12T12:07:50.659Z,16.20
2018-11-12T12:10:19.390Z,15.80
2018-11-12T12:12:49.251Z,15.90
2018-11-12T12:15:18.950Z,15.80
2018-11-12T12:17:47.655Z,15.80
2018-11-12T12:20:17.963Z,15.60
2018-11-12T12:22:46.649Z,15.50
2018-11-12T12:25:16.530Z,15.30
2018-11-12T12:27:45.754Z,15.30
2018-11-12T12:30:19.999Z,15.20
2018-11-12T12:32:49.780Z,15.10
2018-11-12T12:35:18.440Z,15.10
2018-11-12T12:37:47.673Z,15.10
2018-11-12T12:40:17.799Z,15.00
2018-11-12T12:42:46.492Z,14.80
2018-11-12T12:45:17.443Z,14.70
2018-11-12T12:47:46.621Z,14.60
2018-11-12T12:50:16.118Z,14.70
2018-11-12T12:52:44.905Z,14.60
2018-11-12T12:55:14.534Z,14.60
2018-11-12T12:57:44.315Z,14.60
2018-11-12T13:00:19.483Z,14.60
2018-11-12T13:02:48.164Z,14.70
2018-11-12T13:05:16.856Z,14.60
2018-11-12T13:07:47.309Z,14.60
2018-11-12T13:10:17.364Z,14.50
2018-11-12T13:12:46.262Z,14.50
2018-11-12T13:15:16.428Z,14.50
2018-11-12T13:17:46.283Z,14.40
2018-11-12T13:20:16.315Z,14.40
2018-11-12T13:22:45.821Z,14.40
2018-11-12T13:25:14.716Z,14.40
2018-11-12T13:27:43.816Z,14.30
2018-11-12T13:30:14.803Z,14.40
2018-11-12T13:32:44.233Z,14.40
2018-11-12T13:35:14.371Z,14.30
2018-11-12T13:37:43.242Z,14.30
2018-11-12T13:40:14.684Z,14.20
2018-11-12T13:42:44.937Z,14.10
2018-11-12T13:45:13.802Z,14.10
2018-11-12T13:47:42.513Z,14.00
2018-11-12T13:50:13.984Z,13.90
2018-11-12T13:52:42.828Z,13.80
2018-11-12T13:55:12.754Z,13.60
2018-11-12T13:57:41.624Z,13.50
2018-11-12T14:00:12.745Z,13.40
2018-11-12T14:02:42.170Z,13.30
2018-11-12T14:05:13.212Z,13.20
2018-11-12T14:07:42.468Z,13.10
2018-11-12T14:10:13.753Z,13.00
2018-11-12T14:12:43.163Z,12.80
2018-11-12T14:15:14.734Z,12.90
2018-11-12T14:17:43.909Z,12.90
2018-11-12T14:20:12.725Z,12.80
2018-11-12T14:22:41.398Z,12.70
2018-11-12T14:25:11.859Z,12.70
2018-11-12T14:27:40.737Z,12.70
2018-11-12T14:30:12.424Z,12.60
2018-11-12T14:32:41.372Z,12.50
2018-11-12T14:35:11.056Z,12.50
2018-11-12T14:37:40.622Z,12.40
2018-11-12T14:40:10.740Z,12.40
2018-11-12T14:42:39.381Z,12.40
2018-11-12T14:45:09.987Z,12.30
2018-11-12T14:47:38.563Z,12.30
2018-11-12T14:50:07.350Z,12.30
2018-11-12T14:52:36.427Z,12.20
2018-11-12T14:55:06.489Z,12.20
2018-11-12T14:57:35.261Z,12.20
2018-11-12T15:00:04.254Z,12.20
2018-11-12T15:02:32.919Z,12.20
2018-11-12T15:05:01.597Z,12.10
2018-11-12T15:07:30.413Z,12.10
2018-11-12T15:09:59.143Z,12.10
2018-11-12T15:12:28.014Z,12.10
2018-11-12T15:14:56.709Z,12.00
2018-11-12T15:17:25.348Z,12.00
2018-11-12T15:19:54.293Z,12.00
2018-11-12T15:22:22.939Z,12.00
2018-11-12T15:24:51.719Z,12.00
2018-11-12T15:27:20.517Z,11.90
2018-11-12T15:29:49.167Z,11.90
2018-11-12T15:32:17.951Z,12.00
2018-11-12T15:34:46.685Z,11.90
2018-11-12T15:37:15.582Z,11.90
2018-11-12T15:39:45.467Z,11.80
2018-11-12T15:42:14.375Z,11.80
2018-11-12T15:44:43.012Z,11.80
2018-11-12T15:47:12.651Z,11.70
2018-11-12T15:49:41.652Z,11.70
2018-11-12T15:52:11.028Z,11.60
2018-11-12T15:54:39.821Z,11.60
2018-11-12T15:57:08.615Z,11.60
2018-11-12T15:59:37.272Z,11.50
2018-11-12T16:02:06.070Z,11.40
2018-11-12T16:04:34.990Z,11.40
2018-11-12T16:07:03.691Z,11.40
2018-11-12T16:09:32.338Z,11.40
2018-11-12T16:12:01.340Z,11.30
2018-11-12T16:14:30.046Z,11.30
2018-11-12T16:16:59.736Z,11.30
2018-11-12T16:19:28.479Z,11.20
2018-11-12T16:21:57.210Z,11.20
2018-11-12T16:24:26.491Z,11.20
2018-11-12T16:26:55.216Z,11.10
2018-11-12T16:29:24.144Z,11.10
2018-11-12T16:31:52.905Z,11.10
2018-11-12T16:34:21.652Z,11.00
2018-11-12T16:36:50.478Z,11.00
2018-11-12T16:39:19.114Z,11.00
2018-11-12T16:41:47.916Z,11.00
2018-11-12T16:44:16.751Z,10.90
2018-11-12T16:46:45.520Z,10.90
2018-11-12T16:49:14.334Z,10.90
2018-11-12T16:51:42.970Z,10.80
2018-11-12T16:54:11.651Z,10.80
2018-11-12T16:56:40.327Z,10.70
2018-11-12T16:59:09.331Z,10.80
2018-11-12T17:01:38.021Z,10.70
2018-11-12T17:04:06.900Z,10.70
2018-11-12T17:06:35.567Z,10.70
2018-11-12T17:09:07.268Z,10.60
2018-11-12T17:11:36.002Z,10.60
2018-11-12T17:14:05.328Z,10.60
2018-11-12T17:16:34.077Z,10.50
2018-11-12T17:19:02.847Z,10.50
2018-11-12T17:21:31.589Z,10.50
2018-11-12T17:24:01.080Z,10.50
2018-11-12T17:26:30.184Z,10.50
2018-11-12T17:28:59.129Z,10.50
2018-11-12T17:31:28.062Z,10.40
2018-11-12T17:33:57.047Z,10.40
2018-11-12T17:36:25.996Z,10.40
2018-11-12T17:38:54.843Z,10.40
2018-11-12T17:41:23.949Z,10.30
2018-11-12T17:43:53.022Z,10.30
2018-11-12T17:46:21.750Z,10.30
2018-11-12T17:48:50.469Z,10.30
2018-11-12T17:51:19.839Z,10.30
2018-11-12T17:53:48.553Z,10.20
2018-11-12T17:56:17.615Z,10.20
2018-11-12T17:58:46.334Z,10.20
2018-11-12T18:01:15.104Z,10.10
2018-11-12T18:03:43.985Z,10.00
2018-11-12T18:06:12.835Z,10.00
2018-11-12T18:08:41.588Z,9.90
2018-11-12T18:11:10.462Z,9.90
2018-11-12T18:13:40.135Z,9.80
2018-11-12T18:16:08.901Z,9.80
2018-11-12T18:18:38.517Z,9.80
2018-11-12T18:21:08.112Z,9.80
2018-11-12T18:23:36.881Z,9.80
2018-11-12T18:26:05.965Z,9.70
2018-11-12T18:28:34.836Z,9.60
2018-11-12T18:31:03.695Z,9.60
2018-11-12T18:33:32.706Z,9.60
2018-11-12T18:36:01.461Z,9.50
2018-11-12T18:38:30.136Z,9.50
2018-11-12T18:40:59.056Z,9.50
2018-11-12T18:43:27.842Z,9.50
2018-11-12T18:45:56.591Z,9.50
2018-11-12T18:48:25.280Z,9.50
2018-11-12T18:50:53.981Z,9.50
2018-11-12T18:53:22.821Z,9.50
2018-11-12T18:55:51.596Z,9.50
2018-11-12T18:58:20.276Z,9.50
2018-11-12T19:00:49.136Z,9.40
2018-11-12T19:03:18.132Z,9.40
2018-11-12T19:05:46.904Z,9.40
2018-11-12T19:08:15.615Z,9.40
2018-11-12T19:10:44.706Z,9.40
2018-11-12T19:13:13.473Z,9.40
2018-11-12T19:15:42.227Z,9.40
2018-11-12T19:18:12.581Z,9.30
2018-11-12T19:20:41.319Z,9.30
2018-11-12T19:23:10.060Z,9.30
2018-11-12T19:25:38.791Z,9.20
2018-11-12T19:28:07.594Z,9.20
2018-11-12T19:30:36.334Z,9.20
2018-11-12T19:33:05.731Z,9.20
2018-11-12T19:35:34.480Z,9.20
2018-11-12T19:38:03.176Z,9.10
2018-11-12T19:40:32.754Z,9.10
2018-11-12T19:43:01.376Z,9.10
2018-11-12T19:45:30.197Z,9.00
2018-11-12T19:47:58.887Z,9.00
2018-11-12T19:50:28.788Z,9.00
2018-11-12T19:52:58.571Z,8.90
2018-11-12T19:55:27.417Z,8.90
2018-11-12T19:57:56.285Z,8.90
2018-11-12T20:00:26.195Z,8.90
2018-11-12T20:02:55.996Z,8.90
2018-11-12T20:05:24.711Z,8.80
2018-11-12T20:07:53.329Z,8.80
2018-11-12T20:10:22.915Z,8.70
2018-11-12T20:12:51.869Z,8.70
2018-11-12T20:15:21.824Z,8.60
2018-11-12T20:17:51.499Z,8.70
2018-11-12T20:20:23.732Z,8.60
2018-11-12T20:22:52.718Z,8.60
2018-11-12T20:25:21.684Z,8.50
2018-11-12T20:27:51.552Z,8.50
2018-11-12T20:30:25.028Z,8.50
2018-11-12T20:32:53.729Z,8.50
2018-11-12T20:35:22.372Z,8.40
2018-11-12T20:37:51.068Z,8.40
2018-11-12T20:40:19.807Z,8.40
2018-11-12T20:42:49.077Z,8.40
2018-11-12T20:45:19.063Z,8.40
2018-11-12T20:47:49.180Z,8.40
2018-11-12T20:50:18.026Z,8.30
2018-11-12T20:52:47.015Z,8.30
2018-11-12T20:55:16.944Z,8.30
2018-11-12T20:57:45.800Z,8.30
2018-11-12T21:00:17.052Z,8.30
2018-11-12T21:02:48.077Z,8.30
2018-11-12T21:05:17.008Z,8.20
2018-11-12T21:07:45.780Z,8.30
2018-11-12T21:10:15.923Z,8.20
2018-11-12T21:12:44.798Z,8.30
2018-11-12T21:15:14.509Z,8.30
2018-11-12T21:17:43.459Z,8.30
2018-11-12T21:20:15.151Z,8.30
2018-11-12T21:22:44.121Z,8.30
2018-11-12T21:25:14.164Z,8.30
2018-11-12T21:27:42.935Z,8.30
2018-11-12T21:30:14.735Z,8.20
2018-11-12T21:32:44.274Z,8.20
2018-11-12T21:35:13.133Z,8.20
2018-11-12T21:37:42.017Z,8.20
2018-11-12T21:40:15.738Z,8.10
2018-11-12T21:42:44.497Z,8.20
2018-11-12T21:45:14.721Z,8.20
2018-11-12T21:47:43.626Z,8.20
2018-11-12T21:50:14.544Z,8.20
2018-11-12T21:52:43.171Z,8.20
2018-11-12T21:55:13.112Z,8.20
2018-11-12T21:57:42.287Z,8.20
2018-11-12T22:00:16.495Z,8.20
2018-11-12T22:02:46.399Z,8.20
2018-11-12T22:05:15.202Z,8.20
2018-11-12T22:07:44.105Z,8.20
2018-11-12T22:10:14.081Z,8.30
2018-11-12T22:12:44.250Z,8.30
2018-11-12T22:15:13.199Z,8.30
2018-11-12T22:17:41.912Z,8.30
2018-11-12T22:20:12.046Z,8.40
2018-11-12T22:22:41.628Z,8.40
2018-11-12T22:25:12.075Z,8.40
2018-11-12T22:27:41.477Z,8.40
2018-11-12T22:30:12.303Z,8.40
2018-11-12T22:32:40.995Z,8.40
2018-11-12T22:35:10.182Z,8.30
2018-11-12T22:37:38.921Z,8.30
2018-11-12T22:40:09.140Z,8.30
2018-11-12T22:42:37.806Z,8.30
2018-11-12T22:45:07.928Z,8.30
2018-11-12T22:47:36.580Z,8.30
2018-11-12T22:50:06.529Z,8.20
2018-11-12T22:52:35.287Z,8.30
2018-11-12T22:55:04.155Z,8.20
2018-11-12T22:57:32.852Z,8.20
2018-11-12T23:00:01.485Z,8.20
2018-11-12T23:02:30.135Z,8.20
2018-11-12T23:04:58.887Z,8.20
2018-11-12T23:07:27.575Z,8.20
2018-11-12T23:09:56.223Z,8.20
2018-11-12T23:12:24.888Z,8.20
2018-11-12T23:14:53.673Z,8.20
2018-11-12T23:17:22.308Z,8.20
2018-11-12T23:19:51.155Z,8.20
2018-11-12T23:22:19.920Z,8.20
2018-11-12T23:24:48.556Z,8.10
2018-11-12T23:27:17.228Z,8.10
2018-11-12T23:29:45.832Z,8.10
2018-11-12T23:32:14.512Z,8.10
2018-11-12T23:34:43.203Z,8.00
2018-11-12T23:37:11.903Z,8.10
2018-11-12T23:39:40.683Z,8.10
2018-11-12T23:42:09.356Z,8.10
2018-11-12T23:44:38.259Z,8.00
2018-11-12T23:47:06.943Z,8.00
2018-11-12T23:49:35.731Z,8.00
2018-11-12T23:52:04.762Z,8.00
2018-11-12T23:54:33.407Z,8.00
2018-11-12T23:57:02.055Z,8.00
2018-11-12T23:59:30.671Z,7.90
